createdAt,value
2018-07-02T00:00:04.959Z,1000.62
2018-07-02T00:00:45.461Z,1000.69
2018-07-02T00:01:25.962Z,1000.69
2018-07-02T00:02:06.419Z,1000.63
2018-07-02T00:02:46.944Z,1000.67
2018-07-02T00:03:28.239Z,1000.63
2018-07-02T00:04:08.770Z,1000.65
2018-07-02T00:04:49.291Z,1000.63
2018-07-02T00:05:29.770Z,1000.63
2018-07-02T00:06:10.232Z,1000.63
2018-07-02T00:06:51.351Z,1000.56
2018-07-02T00:07:31.842Z,1000.54
2018-07-02T00:08:12.381Z,1000.62
2018-07-02T00:08:52.842Z,1000.6
2018-07-02T00:09:33.323Z,1000.56
2018-07-02T00:10:13.810Z,1000.58
2018-07-02T00:10:54.324Z,1000.55
2018-07-02T00:11:34.836Z,1000.55
2018-07-02T00:12:15.311Z,1000.58
2018-07-02T00:12:55.849Z,1000.59
2018-07-02T00:13:36.303Z,1000.53
2018-07-02T00:14:16.861Z,1000.55
2018-07-02T00:14:58.268Z,1000.57
2018-07-02T00:15:38.790Z,1000.5
2018-07-02T00:16:19.317Z,1000.51
2018-07-02T00:16:59.846Z,1000.51
2018-07-02T00:17:40.315Z,1000.5
2018-07-02T00:18:20.827Z,1000.48
2018-07-02T00:19:01.338Z,1000.51
2018-07-02T00:19:41.825Z,1000.51
2018-07-02T00:20:22.310Z,1000.53
2018-07-02T00:21:02.787Z,1000.51
2018-07-02T00:21:43.278Z,1000.52
2018-07-02T00:22:23.799Z,1000.52
2018-07-02T00:23:04.262Z,1000.53
2018-07-02T00:23:44.829Z,1000.52
2018-07-02T00:24:26.070Z,1000.53
2018-07-02T00:25:06.573Z,1000.53
2018-07-02T00:25:47.090Z,1000.52
2018-07-02T00:26:27.555Z,1000.54
2018-07-02T00:27:08.037Z,1000.51
2018-07-02T00:27:49.416Z,1000.51
2018-07-02T00:28:30.774Z,1000.51
2018-07-02T00:29:11.462Z,1000.51
2018-07-02T00:29:52.915Z,1000.53
2018-07-02T00:30:33.430Z,1000.53
2018-07-02T00:31:13.974Z,1000.47
2018-07-02T00:31:54.454Z,1000.5
2018-07-02T00:32:34.904Z,1000.5
2018-07-02T00:33:15.392Z,1000.5
2018-07-02T00:33:55.902Z,1000.46
2018-07-02T00:34:36.403Z,1000.44
2018-07-02T00:35:16.902Z,1000.44
2018-07-02T00:35:57.404Z,1000.48
2018-07-02T00:36:38.841Z,1000.44
2018-07-02T00:37:19.354Z,1000.41
2018-07-02T00:37:59.888Z,1000.46
2018-07-02T00:38:40.355Z,1000.44
2018-07-02T00:39:20.852Z,1000.42
2018-07-02T00:40:01.366Z,1000.44
2018-07-02T00:40:41.898Z,1000.45
2018-07-02T00:41:22.408Z,1000.41
2018-07-02T00:42:03.837Z,1000.42
2018-07-02T00:42:45.177Z,1000.44
2018-07-02T00:43:26.343Z,1000.37
2018-07-02T00:44:07.452Z,1000.35
2018-07-02T00:44:48.727Z,1000.33
2018-07-02T00:45:29.148Z,1000.33
2018-07-02T00:46:09.641Z,1000.3
2018-07-02T00:46:50.202Z,1000.29
2018-07-02T00:47:30.663Z,1000.31
2018-07-02T00:48:11.169Z,1000.29
2018-07-02T00:48:51.664Z,1000.37
2018-07-02T00:49:32.183Z,1000.37
2018-07-02T00:50:12.731Z,1000.35
2018-07-02T00:50:54.178Z,1000.35
2018-07-02T00:51:34.659Z,1000.4
2018-07-02T00:52:15.204Z,1000.4
2018-07-02T00:52:55.688Z,1000.37
2018-07-02T00:53:36.246Z,1000.43
2018-07-02T00:54:16.718Z,1000.41
2018-07-02T00:54:57.961Z,1000.39
2018-07-02T00:55:39.145Z,1000.41
2018-07-02T00:56:20.356Z,1000.46
2018-07-02T00:57:00.853Z,1000.48
2018-07-02T00:57:41.389Z,1000.45
2018-07-02T00:58:21.901Z,1000.41
2018-07-02T00:59:02.409Z,1000.47
2018-07-02T00:59:42.910Z,1000.44
2018-07-02T01:00:23.590Z,1000.44
2018-07-02T01:01:04.924Z,1000.39
2018-07-02T01:01:45.433Z,1000.42
2018-07-02T01:02:25.931Z,1000.44
2018-07-02T01:03:06.420Z,1000.41
2018-07-02T01:03:48.668Z,1000.4
2018-07-02T01:04:29.192Z,1000.4
2018-07-02T01:05:09.693Z,1000.41
2018-07-02T01:05:50.195Z,1000.41
2018-07-02T01:06:30.707Z,1000.39
2018-07-02T01:07:11.193Z,1000.42
2018-07-02T01:07:51.716Z,1000.39
2018-07-02T01:08:32.233Z,1000.44
2018-07-02T01:09:12.759Z,1000.43
2018-07-02T01:09:53.220Z,1000.42
2018-07-02T01:10:33.742Z,1000.44
2018-07-02T01:11:14.238Z,1000.42
2018-07-02T01:11:55.457Z,1000.44
2018-07-02T01:12:36.940Z,1000.44
2018-07-02T01:13:17.455Z,1000.38
2018-07-02T01:13:57.976Z,1000.42
2018-07-02T01:14:38.487Z,1000.47
2018-07-02T01:15:19.792Z,1000.47
2018-07-02T01:16:00.307Z,1000.49
2018-07-02T01:16:40.822Z,1000.47
2018-07-02T01:17:21.342Z,1000.49
2018-07-02T01:18:01.843Z,1000.51
2018-07-02T01:18:42.381Z,1000.51
2018-07-02T01:19:22.851Z,1000.52
2018-07-02T01:20:03.868Z,1000.54
2018-07-02T01:20:44.394Z,1000.58
2018-07-02T01:21:24.872Z,1000.57
2018-07-02T01:22:05.354Z,1000.51
2018-07-02T01:22:45.871Z,1000.55
2018-07-02T01:23:26.375Z,1000.59
2018-07-02T01:24:07.780Z,1000.52
2018-07-02T01:24:48.346Z,1000.59
2018-07-02T01:25:28.833Z,1000.55
2018-07-02T01:26:09.295Z,1000.59
2018-07-02T01:26:49.823Z,1000.61
2018-07-02T01:27:30.324Z,1000.63
2018-07-02T01:28:10.863Z,1000.67
2018-07-02T01:28:51.358Z,1000.73
2018-07-02T01:29:31.866Z,1000.7
2018-07-02T01:30:12.368Z,1000.71
2018-07-02T01:30:53.402Z,1000.7
2018-07-02T01:31:33.875Z,1000.73
2018-07-02T01:32:14.385Z,1000.77
2018-07-02T01:32:54.913Z,1000.79
2018-07-02T01:33:35.431Z,1000.78
2018-07-02T01:34:15.947Z,1000.84
2018-07-02T01:34:56.436Z,1000.81
2018-07-02T01:35:36.950Z,1000.76
2018-07-02T01:36:17.466Z,1000.79
2018-07-02T01:36:58.953Z,1000.86
2018-07-02T01:37:41.187Z,1000.75
2018-07-02T01:38:21.675Z,1000.77
2018-07-02T01:39:03.462Z,1000.74
2018-07-02T01:39:44.026Z,1000.79
2018-07-02T01:40:25.287Z,1000.81
2018-07-02T01:41:05.802Z,1000.85
2018-07-02T01:41:46.300Z,1000.85
2018-07-02T01:42:26.816Z,1000.84
2018-07-02T01:43:08.318Z,1000.82
2018-07-02T01:43:49.624Z,1000.9
2018-07-02T01:44:30.141Z,1000.91
2018-07-02T01:45:10.688Z,1000.9
2018-07-02T01:45:51.193Z,1000.93
2018-07-02T01:46:31.701Z,1000.9
2018-07-02T01:47:13.096Z,1000.89
2018-07-02T01:47:53.617Z,1000.9
2018-07-02T01:48:34.143Z,1000.91
2018-07-02T01:49:14.662Z,1000.91
2018-07-02T01:49:55.174Z,1000.89
2018-07-02T01:50:35.696Z,1000.9
2018-07-02T01:51:16.224Z,1000.87
2018-07-02T01:51:56.732Z,1000.89
2018-07-02T01:52:37.215Z,1000.9
2018-07-02T01:53:17.728Z,1000.89
2018-07-02T01:53:58.245Z,1000.89
2018-07-02T01:54:38.759Z,1000.89
2018-07-02T01:55:19.892Z,1000.93
2018-07-02T01:56:00.397Z,1000.91
2018-07-02T01:56:41.792Z,1000.86
2018-07-02T01:57:22.310Z,1000.85
2018-07-02T01:58:02.810Z,1000.88
2018-07-02T01:58:43.325Z,1000.81
2018-07-02T01:59:23.855Z,1000.85
2018-07-02T02:00:04.359Z,1000.78
2018-07-02T02:00:44.884Z,1000.77
2018-07-02T02:01:25.412Z,1000.82
2018-07-02T02:02:06.457Z,1000.79
2018-07-02T02:02:46.983Z,1000.78
2018-07-02T02:03:28.394Z,1000.79
2018-07-02T02:04:09.694Z,1000.76
2018-07-02T02:04:50.886Z,1000.78
2018-07-02T02:05:31.388Z,1000.77
2018-07-02T02:06:11.906Z,1000.76
2018-07-02T02:06:52.420Z,1000.75
2018-07-02T02:07:32.944Z,1000.75
2018-07-02T02:08:13.453Z,1000.74
2018-07-02T02:08:53.951Z,1000.78
2018-07-02T02:09:35.319Z,1000.79
2018-07-02T02:10:15.830Z,1000.74
2018-07-02T02:10:56.313Z,1000.73
2018-07-02T02:11:37.391Z,1000.74
2018-07-02T02:12:17.915Z,1000.72
2018-07-02T02:12:58.409Z,1000.73
2018-07-02T02:13:38.977Z,1000.69
2018-07-02T02:14:19.466Z,1000.73
2018-07-02T02:14:59.990Z,1000.67
2018-07-02T02:15:41.401Z,1000.73
2018-07-02T02:16:21.840Z,1000.66
2018-07-02T02:17:02.339Z,1000.68
2018-07-02T02:17:42.842Z,1000.68
2018-07-02T02:18:23.346Z,1000.64
2018-07-02T02:19:03.828Z,1000.62
2018-07-02T02:19:44.355Z,1000.7
2018-07-02T02:20:24.871Z,1000.63
2018-07-02T02:21:06.301Z,1000.63
2018-07-02T02:21:46.825Z,1000.59
2018-07-02T02:22:28.207Z,1000.66
2018-07-02T02:23:08.733Z,1000.64
2018-07-02T02:23:50.236Z,1000.66
2018-07-02T02:24:30.735Z,1000.67
2018-07-02T02:25:11.227Z,1000.67
2018-07-02T02:25:51.731Z,1000.67
2018-07-02T02:26:32.224Z,1000.68
2018-07-02T02:27:12.728Z,1000.69
2018-07-02T02:27:54.809Z,1000.66
2018-07-02T02:28:35.327Z,1000.66
2018-07-02T02:29:16.695Z,1000.63
2018-07-02T02:29:57.254Z,1000.63
2018-07-02T02:30:37.716Z,1000.66
2018-07-02T02:31:18.904Z,1000.63
2018-07-02T02:31:59.570Z,1000.57
2018-07-02T02:32:40.064Z,1000.58
2018-07-02T02:33:20.587Z,1000.57
2018-07-02T02:34:01.053Z,1000.58
2018-07-02T02:34:41.568Z,1000.68
2018-07-02T02:35:22.080Z,1000.63
2018-07-02T02:36:02.609Z,1000.6
2018-07-02T02:36:43.130Z,1000.69
2018-07-02T02:37:23.648Z,1000.6
2018-07-02T02:38:05.617Z,1000.62
2018-07-02T02:38:47.975Z,1000.67
2018-07-02T02:39:30.200Z,1000.7
2018-07-02T02:40:10.703Z,1000.7
2018-07-02T02:40:51.202Z,1000.72
2018-07-02T02:41:31.712Z,1000.7
2018-07-02T02:42:12.279Z,1000.68
2018-07-02T02:42:53.327Z,1000.62
2018-07-02T02:43:35.720Z,1000.68
2018-07-02T02:44:16.266Z,1000.65
2018-07-02T02:44:56.740Z,1000.66
2018-07-02T02:45:37.264Z,1000.66
2018-07-02T02:46:17.744Z,1000.66
2018-07-02T02:46:58.266Z,1000.63
2018-07-02T02:47:38.779Z,1000.63
2018-07-02T02:48:19.263Z,1000.6
2018-07-02T02:48:59.748Z,1000.63
2018-07-02T02:49:40.214Z,1000.56
2018-07-02T02:50:20.734Z,1000.61
2018-07-02T02:51:01.262Z,1000.61
2018-07-02T02:51:41.699Z,1000.58
2018-07-02T02:52:22.902Z,1000.59
2018-07-02T02:53:04.332Z,1000.57
2018-07-02T02:53:45.627Z,1000.62
2018-07-02T02:54:26.153Z,1000.65
2018-07-02T02:55:07.646Z,1000.65
2018-07-02T02:55:48.141Z,1000.69
2018-07-02T02:56:28.644Z,1000.7
2018-07-02T02:57:09.122Z,1000.7
2018-07-02T02:57:49.646Z,1000.74
2018-07-02T02:58:30.161Z,1000.73
2018-07-02T02:59:10.665Z,1000.72
2018-07-02T02:59:51.162Z,1000.72
2018-07-02T03:00:32.156Z,1000.74
2018-07-02T03:01:12.657Z,1000.71
2018-07-02T03:01:53.171Z,1000.7
2018-07-02T03:02:33.658Z,1000.73
2018-07-02T03:03:14.671Z,1000.68
2018-07-02T03:03:55.130Z,1000.66
2018-07-02T03:04:35.609Z,1000.61
2018-07-02T03:05:16.096Z,1000.67
2018-07-02T03:05:56.600Z,1000.68
2018-07-02T03:06:37.116Z,1000.69
2018-07-02T03:07:17.611Z,1000.65
2018-07-02T03:07:58.933Z,1000.73
2018-07-02T03:08:39.416Z,1000.67
2018-07-02T03:09:19.893Z,1000.7
2018-07-02T03:10:00.421Z,1000.69
2018-07-02T03:10:40.958Z,1000.63
2018-07-02T03:11:21.426Z,1000.64
2018-07-02T03:12:01.940Z,1000.66
2018-07-02T03:12:43.345Z,1000.62
2018-07-02T03:13:24.837Z,1000.64
2018-07-02T03:14:05.347Z,1000.69
2018-07-02T03:14:45.868Z,1000.7
2018-07-02T03:15:27.245Z,1000.72
2018-07-02T03:16:07.763Z,1000.69
2018-07-02T03:16:49.134Z,1000.74
2018-07-02T03:17:31.237Z,1000.68
2018-07-02T03:18:11.777Z,1000.73
2018-07-02T03:18:52.294Z,1000.74
2018-07-02T03:19:32.760Z,1000.75
2018-07-02T03:20:13.344Z,1000.75
2018-07-02T03:20:55.736Z,1000.68
2018-07-02T03:21:36.233Z,1000.72
2018-07-02T03:22:17.749Z,1000.73
2018-07-02T03:22:58.254Z,1000.69
2018-07-02T03:23:39.725Z,1000.74
2018-07-02T03:24:20.992Z,1000.66
2018-07-02T03:25:01.505Z,1000.66
2018-07-02T03:25:41.986Z,1000.68
2018-07-02T03:26:22.500Z,1000.68
2018-07-02T03:27:03.009Z,1000.71
2018-07-02T03:27:43.518Z,1000.73
2018-07-02T03:28:24.061Z,1000.73
2018-07-02T03:29:04.500Z,1000.74
2018-07-02T03:29:46.518Z,1000.73
2018-07-02T03:30:28.848Z,1000.77
2018-07-02T03:31:10.142Z,1000.75
2018-07-02T03:31:51.247Z,1000.78
2018-07-02T03:32:31.754Z,1000.77
2018-07-02T03:33:12.255Z,1000.76
2018-07-02T03:33:52.812Z,1000.78
2018-07-02T03:34:33.279Z,1000.78
2018-07-02T03:35:13.789Z,1000.76
2018-07-02T03:35:54.297Z,1000.78
2018-07-02T03:36:34.812Z,1000.74
2018-07-02T03:37:15.329Z,1000.73
2018-07-02T03:37:56.643Z,1000.77
2018-07-02T03:38:37.150Z,1000.79
2018-07-02T03:39:18.344Z,1000.76
2018-07-02T03:39:58.854Z,1000.74
2018-07-02T03:40:39.354Z,1000.74
2018-07-02T03:41:19.858Z,1000.73
2018-07-02T03:42:00.380Z,1000.76
2018-07-02T03:42:40.889Z,1000.75
2018-07-02T03:43:21.402Z,1000.78
2018-07-02T03:44:01.923Z,1000.8
2018-07-02T03:44:42.426Z,1000.82
2018-07-02T03:45:23.011Z,1000.86
2018-07-02T03:46:03.477Z,1000.85
2018-07-02T03:46:43.967Z,1000.78
2018-07-02T03:47:24.506Z,1000.81
2018-07-02T03:48:04.996Z,1000.78
2018-07-02T03:48:45.516Z,1000.78
2018-07-02T03:49:26.082Z,1000.87
2018-07-02T03:50:06.548Z,1000.87
2018-07-02T03:50:47.071Z,1000.83
2018-07-02T03:51:27.590Z,1000.87
2018-07-02T03:52:08.113Z,1000.87
2018-07-02T03:52:48.608Z,1000.87
2018-07-02T03:53:29.063Z,1000.93
2018-07-02T03:54:09.515Z,1000.9
2018-07-02T03:54:50.003Z,1000.9
2018-07-02T03:55:30.520Z,1000.89
2018-07-02T03:56:11.027Z,1000.89
2018-07-02T03:56:51.530Z,1000.92
2018-07-02T03:57:32.062Z,1000.91
2018-07-02T03:58:12.559Z,1000.87
2018-07-02T03:58:53.058Z,1000.9
2018-07-02T03:59:33.557Z,1000.85
2018-07-02T04:00:14.071Z,1000.86
2018-07-02T04:00:54.597Z,1000.84
2018-07-02T04:01:35.112Z,1000.84
2018-07-02T04:02:15.641Z,1000.85
2018-07-02T04:02:56.149Z,1000.84
2018-07-02T04:03:36.651Z,1000.8
2018-07-02T04:04:17.161Z,1000.82
2018-07-02T04:04:57.685Z,1000.76
2018-07-02T04:05:38.190Z,1000.81
2018-07-02T04:06:20.288Z,1000.8
2018-07-02T04:07:01.759Z,1000.78
2018-07-02T04:07:43.026Z,1000.8
2018-07-02T04:08:23.548Z,1000.78
2018-07-02T04:09:04.093Z,1000.81
2018-07-02T04:09:46.293Z,1000.86
2018-07-02T04:10:27.772Z,1000.81
2018-07-02T04:11:08.268Z,1000.81
2018-07-02T04:11:48.744Z,1000.8
2018-07-02T04:12:29.252Z,1000.8
2018-07-02T04:13:09.760Z,1000.78
2018-07-02T04:13:50.264Z,1000.75
2018-07-02T04:14:30.770Z,1000.78
2018-07-02T04:15:11.864Z,1000.73
2018-07-02T04:15:53.301Z,1000.74
2018-07-02T04:16:33.764Z,1000.7
2018-07-02T04:17:14.271Z,1000.73
2018-07-02T04:17:54.809Z,1000.73
2018-07-02T04:18:35.315Z,1000.71
2018-07-02T04:19:16.532Z,1000.73
2018-07-02T04:19:57.710Z,1000.73
2018-07-02T04:20:38.179Z,1000.74
2018-07-02T04:21:18.699Z,1000.78
2018-07-02T04:21:59.175Z,1000.76
2018-07-02T04:22:39.703Z,1000.75
2018-07-02T04:23:20.767Z,1000.78
2018-07-02T04:24:02.241Z,1000.77
2018-07-02T04:24:42.811Z,1000.78
2018-07-02T04:25:23.429Z,1000.79
2018-07-02T04:26:04.711Z,1000.84
2018-07-02T04:26:46.107Z,1000.84
2018-07-02T04:27:27.866Z,1000.8
2018-07-02T04:28:08.870Z,1000.85
2018-07-02T04:28:49.380Z,1000.9
2018-07-02T04:29:29.946Z,1000.85
2018-07-02T04:30:10.427Z,1000.9
2018-07-02T04:30:50.918Z,1000.83
2018-07-02T04:31:32.072Z,1000.84
2018-07-02T04:32:13.463Z,1000.8
2018-07-02T04:32:56.468Z,1000.86
2018-07-02T04:33:36.919Z,1000.82
2018-07-02T04:34:17.524Z,1000.81
2018-07-02T04:34:57.923Z,1000.78
2018-07-02T04:35:38.414Z,1000.78
2018-07-02T04:36:18.917Z,1000.81
2018-07-02T04:36:59.449Z,1000.82
2018-07-02T04:37:39.986Z,1000.84
2018-07-02T04:38:20.487Z,1000.81
2018-07-02T04:39:01.016Z,1000.82
2018-07-02T04:39:41.552Z,1000.88
2018-07-02T04:40:22.225Z,1000.84
2018-07-02T04:41:03.377Z,1000.9
2018-07-02T04:41:44.408Z,1000.88
2018-07-02T04:42:24.933Z,1000.82
2018-07-02T04:43:05.417Z,1000.82
2018-07-02T04:43:47.544Z,1000.85
2018-07-02T04:44:28.066Z,1000.83
2018-07-02T04:45:09.403Z,1000.91
2018-07-02T04:45:50.544Z,1000.96
2018-07-02T04:46:31.890Z,1000.9
2018-07-02T04:47:12.975Z,1000.85
2018-07-02T04:47:54.043Z,1000.88
2018-07-02T04:48:34.006Z,1000.81
2018-07-02T04:49:14.520Z,1000.9
2018-07-02T04:49:55.046Z,1000.88
2018-07-02T04:50:35.574Z,1000.9
2018-07-02T04:51:16.061Z,1000.85
2018-07-02T04:51:56.560Z,1000.84
2018-07-02T04:52:37.075Z,1000.86
2018-07-02T04:53:18.175Z,1000.83
2018-07-02T04:53:58.688Z,1000.83
2018-07-02T04:54:39.211Z,1000.81
2018-07-02T04:55:19.714Z,1000.8
2018-07-02T04:56:00.223Z,1000.84
2018-07-02T04:56:40.736Z,1000.85
2018-07-02T04:57:21.246Z,1000.89
2018-07-02T04:58:02.485Z,1000.82
2018-07-02T04:58:42.981Z,1000.83
2018-07-02T04:59:23.502Z,1000.84
2018-07-02T05:00:04.885Z,1000.82
2018-07-02T05:00:45.405Z,1000.83
2018-07-02T05:01:25.949Z,1000.8
2018-07-02T05:02:06.433Z,1000.83
2018-07-02T05:02:46.963Z,1000.85
2018-07-02T05:03:27.496Z,1000.85
2018-07-02T05:04:08.888Z,1000.81
2018-07-02T05:04:49.399Z,1000.79
2018-07-02T05:05:29.883Z,1000.79
2018-07-02T05:06:11.295Z,1000.81
2018-07-02T05:06:52.478Z,1000.78
2018-07-02T05:07:33.823Z,1000.8
2018-07-02T05:08:14.413Z,1000.82
2018-07-02T05:08:55.094Z,1000.84
2018-07-02T05:09:35.556Z,1000.86
2018-07-02T05:10:16.027Z,1000.82
2018-07-02T05:10:56.576Z,1000.87
2018-07-02T05:11:38.594Z,1000.86
2018-07-02T05:12:19.078Z,1000.85
2018-07-02T05:12:59.588Z,1000.86
2018-07-02T05:13:40.133Z,1000.84
2018-07-02T05:14:21.217Z,1000.94
2018-07-02T05:15:01.707Z,1000.91
2018-07-02T05:15:42.225Z,1000.92
2018-07-02T05:16:23.752Z,1000.94
2018-07-02T05:17:04.364Z,1000.91
2018-07-02T05:17:44.677Z,1000.91
2018-07-02T05:18:25.202Z,1000.9
2018-07-02T05:19:06.601Z,1000.89
2018-07-02T05:19:47.100Z,1000.93
2018-07-02T05:20:27.642Z,1000.9
2018-07-02T05:21:08.166Z,1000.92
2018-07-02T05:21:48.610Z,1000.88
2018-07-02T05:22:29.172Z,1000.89
2018-07-02T05:23:09.756Z,1000.94
2018-07-02T05:23:50.961Z,1000.88
2018-07-02T05:24:31.429Z,1000.91
2018-07-02T05:25:11.900Z,1000.89
2018-07-02T05:25:52.403Z,1000.88
2018-07-02T05:26:32.935Z,1000.89
2018-07-02T05:27:14.229Z,1000.93
2018-07-02T05:27:54.680Z,1000.97
2018-07-02T05:28:35.175Z,1000.94
2018-07-02T05:29:15.684Z,1000.93
2018-07-02T05:29:56.180Z,1000.95
2018-07-02T05:30:38.581Z,1000.99
2018-07-02T05:31:19.096Z,1000.94
2018-07-02T05:31:59.584Z,1000.91
2018-07-02T05:32:40.078Z,1000.9
2018-07-02T05:33:21.086Z,1000.96
2018-07-02T05:34:01.605Z,1000.94
2018-07-02T05:34:42.805Z,1000.92
2018-07-02T05:35:23.326Z,1000.94
2018-07-02T05:36:03.831Z,1001.04
2018-07-02T05:36:45.315Z,1000.97
2018-07-02T05:37:25.795Z,1000.97
2018-07-02T05:38:06.335Z,1001.01
2018-07-02T05:38:46.810Z,1001.04
2018-07-02T05:39:27.290Z,1001.06
2018-07-02T05:40:07.801Z,1001.03
2018-07-02T05:40:48.303Z,1001.02
2018-07-02T05:41:28.786Z,1001.05
2018-07-02T05:42:09.315Z,1001.07
2018-07-02T05:42:49.807Z,1001.09
2018-07-02T05:43:30.330Z,1001.06
2018-07-02T05:44:12.462Z,1001.05
2018-07-02T05:44:53.597Z,1001.04
2018-07-02T05:45:34.079Z,1000.99
2018-07-02T05:46:15.364Z,1001.03
2018-07-02T05:46:57.335Z,1001.06
2018-07-02T05:47:38.781Z,1001.03
2018-07-02T05:48:19.226Z,1001.01
2018-07-02T05:49:00.332Z,1001.04
2018-07-02T05:49:40.816Z,1001.05
2018-07-02T05:50:22.944Z,1001.02
2018-07-02T05:51:03.455Z,1001.05
2018-07-02T05:51:43.926Z,1001.07
2018-07-02T05:52:24.441Z,1001.02
2018-07-02T05:53:04.909Z,1001.09
2018-07-02T05:53:45.398Z,1001.09
2018-07-02T05:54:25.910Z,1001.08
2018-07-02T05:55:07.349Z,1001.03
2018-07-02T05:55:47.846Z,1001.02
2018-07-02T05:56:28.320Z,1001.09
2018-07-02T05:57:09.719Z,1001.07
2018-07-02T05:57:51.135Z,1001.07
2018-07-02T05:58:34.094Z,1001.12
2018-07-02T05:59:15.465Z,1001.16
2018-07-02T05:59:55.958Z,1001.11
2018-07-02T06:00:36.560Z,1001.16
2018-07-02T06:01:17.963Z,1001.19
2018-07-02T06:01:59.407Z,1001.23
2018-07-02T06:02:40.045Z,1001.21
2018-07-02T06:03:20.600Z,1001.21
2018-07-02T06:04:01.059Z,1001.2
2018-07-02T06:04:43.390Z,1001.2
2018-07-02T06:05:23.922Z,1001.18
2018-07-02T06:06:04.432Z,1001.24
2018-07-02T06:06:45.678Z,1001.25
2018-07-02T06:07:26.146Z,1001.29
2018-07-02T06:08:07.463Z,1001.29
2018-07-02T06:08:47.927Z,1001.34
2018-07-02T06:09:28.470Z,1001.3
2018-07-02T06:10:09.775Z,1001.34
2018-07-02T06:10:50.903Z,1001.33
2018-07-02T06:11:31.526Z,1001.3
2018-07-02T06:12:12.519Z,1001.33
2018-07-02T06:12:53.927Z,1001.25
2018-07-02T06:13:35.104Z,1001.28
2018-07-02T06:14:15.571Z,1001.25
2018-07-02T06:14:58.543Z,1001.25
2018-07-02T06:15:39.103Z,1001.31
2018-07-02T06:16:19.623Z,1001.29
2018-07-02T06:17:00.161Z,1001.31
2018-07-02T06:17:40.683Z,1001.26
2018-07-02T06:18:21.175Z,1001.26
2018-07-02T06:19:01.730Z,1001.3
2018-07-02T06:19:42.222Z,1001.31
2018-07-02T06:20:22.735Z,1001.33
2018-07-02T06:21:03.282Z,1001.36
2018-07-02T06:21:44.603Z,1001.33
2018-07-02T06:22:25.210Z,1001.26
2018-07-02T06:23:05.704Z,1001.25
2018-07-02T06:23:46.361Z,1001.32
2018-07-02T06:24:26.907Z,1001.28
2018-07-02T06:25:07.475Z,1001.26
2018-07-02T06:25:48.194Z,1001.24
2018-07-02T06:26:28.766Z,1001.22
2018-07-02T06:27:09.218Z,1001.25
2018-07-02T06:27:49.660Z,1001.2
2018-07-02T06:28:30.847Z,1001.18
2018-07-02T06:29:11.321Z,1001.16
2018-07-02T06:29:51.941Z,1001.16
2018-07-02T06:30:32.566Z,1001.19
2018-07-02T06:31:13.625Z,1001.14
2018-07-02T06:31:54.035Z,1001.19
2018-07-02T06:32:34.587Z,1001.17
2018-07-02T06:33:15.265Z,1001.19
2018-07-02T06:33:56.559Z,1001.19
2018-07-02T06:34:37.801Z,1001.23
2018-07-02T06:35:18.772Z,1001.21
2018-07-02T06:35:59.279Z,1001.21
2018-07-02T06:36:39.795Z,1001.27
2018-07-02T06:37:20.317Z,1001.24
2018-07-02T06:38:02.393Z,1001.28
2018-07-02T06:38:42.880Z,1001.27
2018-07-02T06:39:23.335Z,1001.28
2018-07-02T06:40:03.922Z,1001.26
2018-07-02T06:40:44.478Z,1001.26
2018-07-02T06:41:25.636Z,1001.28
2018-07-02T06:42:06.206Z,1001.31
2018-07-02T06:42:46.808Z,1001.27
2018-07-02T06:43:27.312Z,1001.23
2018-07-02T06:44:07.865Z,1001.31
2018-07-02T06:44:48.311Z,1001.25
2018-07-02T06:45:28.806Z,1001.26
2018-07-02T06:46:09.339Z,1001.32
2018-07-02T06:46:49.806Z,1001.35
2018-07-02T06:47:30.336Z,1001.33
2018-07-02T06:48:11.533Z,1001.32
2018-07-02T06:48:52.050Z,1001.38
2018-07-02T06:49:32.689Z,1001.36
2018-07-02T06:50:13.142Z,1001.37
2018-07-02T06:50:54.266Z,1001.44
2018-07-02T06:51:34.740Z,1001.4
2018-07-02T06:52:15.228Z,1001.41
2018-07-02T06:52:55.772Z,1001.43
2018-07-02T06:53:36.299Z,1001.44
2018-07-02T06:54:16.785Z,1001.42
2018-07-02T06:54:57.275Z,1001.48
2018-07-02T06:55:38.548Z,1001.44
2018-07-02T06:56:19.958Z,1001.43
2018-07-02T06:57:00.531Z,1001.5
2018-07-02T06:57:40.934Z,1001.44
2018-07-02T06:58:22.282Z,1001.55
2018-07-02T06:59:02.774Z,1001.5
2018-07-02T06:59:45.615Z,1001.53
2018-07-02T07:00:26.209Z,1001.44
2018-07-02T07:01:06.741Z,1001.44
2018-07-02T07:01:48.157Z,1001.51
2018-07-02T07:02:28.723Z,1001.56
2018-07-02T07:03:09.878Z,1001.59
2018-07-02T07:03:50.360Z,1001.52
2018-07-02T07:04:30.862Z,1001.48
2018-07-02T07:05:11.361Z,1001.53
2018-07-02T07:05:51.889Z,1001.56
2018-07-02T07:06:32.399Z,1001.53
2018-07-02T07:07:12.908Z,1001.54
2018-07-02T07:07:53.393Z,1001.69
2018-07-02T07:08:33.942Z,1001.6
2018-07-02T07:09:14.413Z,1001.57
2018-07-02T07:09:54.890Z,1001.52
2018-07-02T07:10:35.438Z,1001.58
2018-07-02T07:11:15.927Z,1001.64
2018-07-02T07:11:56.458Z,1001.58
2018-07-02T07:12:36.917Z,1001.57
2018-07-02T07:13:17.442Z,1001.57
2018-07-02T07:13:58.636Z,1001.59
2018-07-02T07:14:39.122Z,1001.59
2018-07-02T07:15:20.397Z,1001.58
2018-07-02T07:16:00.896Z,1001.5
2018-07-02T07:16:41.329Z,1001.51
2018-07-02T07:17:22.424Z,1001.59
2018-07-02T07:18:03.074Z,1001.51
2018-07-02T07:18:44.138Z,1001.39
2018-07-02T07:19:24.659Z,1001.47
2018-07-02T07:20:06.149Z,1001.47
2018-07-02T07:20:46.664Z,1001.45
2018-07-02T07:21:28.264Z,1001.44
2018-07-02T07:22:08.683Z,1001.43
2018-07-02T07:22:49.138Z,1001.45
2018-07-02T07:23:30.120Z,1001.46
2018-07-02T07:24:10.664Z,1001.44
2018-07-02T07:24:51.177Z,1001.41
2018-07-02T07:25:31.619Z,1001.42
2018-07-02T07:26:12.074Z,1001.4
2018-07-02T07:26:52.554Z,1001.47
2018-07-02T07:27:34.129Z,1001.4
2018-07-02T07:28:14.543Z,1001.42
2018-07-02T07:28:55.100Z,1001.47
2018-07-02T07:29:35.512Z,1001.42
2018-07-02T07:30:16.057Z,1001.46
2018-07-02T07:30:56.543Z,1001.5
2018-07-02T07:31:38.006Z,1001.49
2018-07-02T07:32:18.476Z,1001.34
2018-07-02T07:32:59.010Z,1001.47
2018-07-02T07:33:39.504Z,1001.41
2018-07-02T07:34:19.980Z,1001.36
2018-07-02T07:35:01.047Z,1001.37
2018-07-02T07:35:41.553Z,1001.37
2018-07-02T07:36:22.797Z,1001.34
2018-07-02T07:37:03.320Z,1001.38
2018-07-02T07:37:43.834Z,1001.42
2018-07-02T07:38:24.295Z,1001.4
2018-07-02T07:39:04.801Z,1001.42
2018-07-02T07:39:45.283Z,1001.41
2018-07-02T07:40:25.812Z,1001.42
2018-07-02T07:41:06.279Z,1001.41
2018-07-02T07:41:46.863Z,1001.36
2018-07-02T07:42:27.335Z,1001.4
2018-07-02T07:43:07.860Z,1001.38
2018-07-02T07:43:49.885Z,1001.35
2018-07-02T07:44:30.367Z,1001.31
2018-07-02T07:45:10.888Z,1001.35
2018-07-02T07:45:51.425Z,1001.33
2018-07-02T07:46:31.929Z,1001.32
2018-07-02T07:47:12.481Z,1001.42
2018-07-02T07:47:53.012Z,1001.3
2018-07-02T07:48:34.076Z,1001.3
2018-07-02T07:49:15.465Z,1001.24
2018-07-02T07:49:56.971Z,1001.24
2018-07-02T07:50:39.163Z,1001.2
2018-07-02T07:51:19.658Z,1001.27
2018-07-02T07:52:00.234Z,1001.2
2018-07-02T07:52:40.695Z,1001.25
2018-07-02T07:53:22.152Z,1001.19
2018-07-02T07:54:02.704Z,1001.18
2018-07-02T07:54:43.472Z,1001.22
2018-07-02T07:55:24.015Z,1001.15
2018-07-02T07:56:04.512Z,1001.28
2018-07-02T07:56:45.205Z,1001.2
2018-07-02T07:57:25.519Z,1001.2
2018-07-02T07:58:06.013Z,1001.16
2018-07-02T07:58:47.212Z,1001.18
2018-07-02T07:59:27.740Z,1001.22
2018-07-02T08:00:08.262Z,1001.27
2018-07-02T08:00:48.830Z,1001.26
2018-07-02T08:01:29.870Z,1001.21
2018-07-02T08:02:11.147Z,1001.19
2018-07-02T08:02:51.705Z,1001.22
2018-07-02T08:03:32.263Z,1001.19
2018-07-02T08:04:12.733Z,1001.24
2018-07-02T08:04:53.310Z,1001.23
2018-07-02T08:05:33.830Z,1001.22
2018-07-02T08:06:14.370Z,1001.23
2018-07-02T08:06:54.949Z,1001.23
2018-07-02T08:07:35.425Z,1001.23
2018-07-02T08:08:15.917Z,1001.18
2018-07-02T08:08:57.146Z,1001.25
2018-07-02T08:09:37.605Z,1001.19
2018-07-02T08:10:18.519Z,1001.3
2018-07-02T08:10:59.920Z,1001.24
2018-07-02T08:11:40.544Z,1001.14
2018-07-02T08:12:21.055Z,1001.22
2018-07-02T08:13:01.552Z,1001.13
2018-07-02T08:13:42.511Z,1001.18
2018-07-02T08:14:23.033Z,1001.12